Saint George's, Canada
Current Conditions -  °F | °C
As of 3:00 PM on Friday 31 Oct 2014 (Local Time) from CYJT Reporting Station
Broken Clouds Broken Clouds  
Wind Chill: 40°   Ceiling: 2000
Heat Index: 46°   Visibility: 15mi
Dew Point: 34°   Wind: 16mph
Humidity: 62%   Direction: 260°W
Pressure: 29.99"   Gusts: NA
Location:  48.43°N, 58.5°W
Report Text: CYJT 311700Z 26014KT 15SM BKN020 08/01 A2999 RMK SC7 SLP155
Loading
Personal Weather Stations






























Interactive Weather Map
Tropical Storm Tracking
New forecast layout! Learn more

10-Day Weather Forecast

Advertisements
Track Severe Weather on mobile